sensor_id;sensor_type;location;lat;lon;timestamp;P1;durP1;ratioP1;P2;durP2;ratioP2
75655;SDS011;64252;51.094;13.714;2024-01-07T00:01:02;27.67;;;10.50;;
75655;SDS011;64252;51.094;13.714;2024-01-07T00:03:28;22.88;;;10.57;;
75655;SDS011;64252;51.094;13.714;2024-01-07T00:05:54;24.05;;;10.70;;
75655;SDS011;64252;51.094;13.714;2024-01-07T00:08:20;21.65;;;11.45;;
75655;SDS011;64252;51.094;13.714;2024-01-07T00:10:46;24.63;;;11.43;;
75655;SDS011;64252;51.094;13.714;2024-01-07T00:13:13;24.98;;;11.40;;
75655;SDS011;64252;51.094;13.714;2024-01-07T00:15:38;20.77;;;10.70;;
75655;SDS011;64252;51.094;13.714;2024-01-07T00:18:04;26.13;;;12.27;;
75655;SDS011;64252;51.094;13.714;2024-01-07T00:20:29;26.48;;;11.88;;
75655;SDS011;64252;51.094;13.714;2024-01-07T00:22:55;29.13;;;12.52;;
75655;SDS011;64252;51.094;13.714;2024-01-07T00:25:21;28.58;;;11.52;;
75655;SDS011;64252;51.094;13.714;2024-01-07T00:27:47;27.83;;;12.13;;
75655;SDS011;64252;51.094;13.714;2024-01-07T00:30:13;31.00;;;12.60;;
75655;SDS011;64252;51.094;13.714;2024-01-07T00:32:39;26.38;;;11.00;;
75655;SDS011;64252;51.094;13.714;2024-01-07T00:35:04;26.75;;;11.40;;
75655;SDS011;64252;51.094;13.714;2024-01-07T00:37:30;26.02;;;11.13;;
75655;SDS011;64252;51.094;13.714;2024-01-07T00:39:56;24.77;;;11.10;;
75655;SDS011;64252;51.094;13.714;2024-01-07T00:42:22;22.45;;;9.82;;
75655;SDS011;64252;51.094;13.714;2024-01-07T00:44:48;26.65;;;11.35;;
75655;SDS011;64252;51.094;13.714;2024-01-07T00:47:17;24.30;;;10.23;;
75655;SDS011;64252;51.094;13.714;2024-01-07T00:49:42;27.38;;;11.18;;
75655;SDS011;64252;51.094;13.714;2024-01-07T00:52:08;20.95;;;10.13;;
75655;SDS011;64252;51.094;13.714;2024-01-07T00:54:34;26.10;;;10.82;;
75655;SDS011;64252;51.094;13.714;2024-01-07T00:56:59;24.05;;;10.95;;
75655;SDS011;64252;51.094;13.714;2024-01-07T00:59:25;21.40;;;10.20;;
75655;SDS011;64252;51.094;13.714;2024-01-07T01:01:54;25.95;;;10.77;;
75655;SDS011;64252;51.094;13.714;2024-01-07T01:04:20;24.58;;;10.63;;
75655;SDS011;64252;51.094;13.714;2024-01-07T01:06:47;22.13;;;10.35;;
75655;SDS011;64252;51.094;13.714;2024-01-07T01:09:13;22.48;;;9.77;;
75655;SDS011;64252;51.094;13.714;2024-01-07T01:11:39;24.33;;;9.20;;
75655;SDS011;64252;51.094;13.714;2024-01-07T01:14:04;22.00;;;9.88;;
75655;SDS011;64252;51.094;13.714;2024-01-07T01:16:30;24.05;;;11.02;;
75655;SDS011;64252;51.094;13.714;2024-01-07T01:18:56;21.63;;;10.00;;
75655;SDS011;64252;51.094;13.714;2024-01-07T01:21:21;21.98;;;9.40;;
75655;SDS011;64252;51.094;13.714;2024-01-07T01:23:48;25.23;;;9.93;;
75655;SDS011;64252;51.094;13.714;2024-01-07T01:26:14;23.50;;;10.77;;
75655;SDS011;64252;51.094;13.714;2024-01-07T01:28:40;23.77;;;10.63;;
75655;SDS011;64252;51.094;13.714;2024-01-07T01:31:06;23.65;;;11.45;;
75655;SDS011;64252;51.094;13.714;2024-01-07T01:33:31;24.70;;;10.90;;
75655;SDS011;64252;51.094;13.714;2024-01-07T01:35:57;26.52;;;10.32;;
75655;SDS011;64252;51.094;13.714;2024-01-07T01:38:23;26.25;;;10.95;;
75655;SDS011;64252;51.094;13.714;2024-01-07T01:40:52;22.73;;;10.52;;
75655;SDS011;64252;51.094;13.714;2024-01-07T01:43:25;23.25;;;10.00;;
75655;SDS011;64252;51.094;13.714;2024-01-07T01:45:54;22.27;;;9.57;;
75655;SDS011;64252;51.094;13.714;2024-01-07T01:48:21;24.10;;;10.15;;
75655;SDS011;64252;51.094;13.714;2024-01-07T01:50:48;25.00;;;9.70;;
75655;SDS011;64252;51.094;13.714;2024-01-07T01:53:14;24.38;;;10.55;;
75655;SDS011;64252;51.094;13.714;2024-01-07T01:55:41;26.35;;;10.52;;
75655;SDS011;64252;51.094;13.714;2024-01-07T01:58:08;23.33;;;9.68;;
75655;SDS011;64252;51.094;13.714;2024-01-07T02:00:34;22.08;;;9.98;;
75655;SDS011;64252;51.094;13.714;2024-01-07T02:03:00;23.13;;;10.63;;
75655;SDS011;64252;51.094;13.714;2024-01-07T02:05:26;22.60;;;9.77;;
75655;SDS011;64252;51.094;13.714;2024-01-07T02:07:54;27.45;;;10.52;;
75655;SDS011;64252;51.094;13.714;2024-01-07T02:10:22;24.85;;;9.75;;
75655;SDS011;64252;51.094;13.714;2024-01-07T02:12:48;29.00;;;9.85;;
75655;SDS011;64252;51.094;13.714;2024-01-07T02:15:14;23.33;;;8.85;;
75655;SDS011;64252;51.094;13.714;2024-01-07T02:17:40;21.45;;;9.00;;
75655;SDS011;64252;51.094;13.714;2024-01-07T02:20:06;22.15;;;8.93;;
75655;SDS011;64252;51.094;13.714;2024-01-07T02:22:32;21.75;;;9.25;;
75655;SDS011;64252;51.094;13.714;2024-01-07T02:24:57;23.17;;;9.98;;
75655;SDS011;64252;51.094;13.714;2024-01-07T02:27:23;22.20;;;9.43;;
75655;SDS011;64252;51.094;13.714;2024-01-07T02:29:49;20.77;;;8.45;;
75655;SDS011;64252;51.094;13.714;2024-01-07T02:32:15;23.42;;;9.20;;
75655;SDS011;64252;51.094;13.714;2024-01-07T02:34:41;19.00;;;8.73;;
75655;SDS011;64252;51.094;13.714;2024-01-07T02:37:07;21.75;;;8.38;;
75655;SDS011;64252;51.094;13.714;2024-01-07T02:39:33;24.13;;;9.73;;
75655;SDS011;64252;51.094;13.714;2024-01-07T02:41:58;19.88;;;8.57;;
75655;SDS011;64252;51.094;13.714;2024-01-07T02:44:24;22.20;;;8.50;;
75655;SDS011;64252;51.094;13.714;2024-01-07T02:46:50;21.80;;;9.40;;
75655;SDS011;64252;51.094;13.714;2024-01-07T02:49:15;16.58;;;7.85;;
75655;SDS011;64252;51.094;13.714;2024-01-07T02:51:41;22.63;;;8.85;;
75655;SDS011;64252;51.094;13.714;2024-01-07T02:54:08;20.15;;;8.80;;
75655;SDS011;64252;51.094;13.714;2024-01-07T02:56:33;17.30;;;8.10;;
75655;SDS011;64252;51.094;13.714;2024-01-07T02:58:59;20.38;;;8.18;;
75655;SDS011;64252;51.094;13.714;2024-01-07T03:01:25;18.67;;;7.35;;
75655;SDS011;64252;51.094;13.714;2024-01-07T03:03:50;18.40;;;7.72;;
75655;SDS011;64252;51.094;13.714;2024-01-07T03:06:17;20.27;;;8.65;;
75655;SDS011;64252;51.094;13.714;2024-01-07T03:08:44;22.30;;;7.75;;
75655;SDS011;64252;51.094;13.714;2024-01-07T03:11:09;20.83;;;8.20;;
75655;SDS011;64252;51.094;13.714;2024-01-07T03:13:35;20.88;;;8.95;;
75655;SDS011;64252;51.094;13.714;2024-01-07T03:16:01;17.92;;;7.95;;
75655;SDS011;64252;51.094;13.714;2024-01-07T03:18:27;18.92;;;8.38;;
75655;SDS011;64252;51.094;13.714;2024-01-07T03:20:54;23.25;;;8.23;;
75655;SDS011;64252;51.094;13.714;2024-01-07T03:23:20;20.40;;;8.50;;
75655;SDS011;64252;51.094;13.714;2024-01-07T03:25:46;18.60;;;7.65;;
75655;SDS011;64252;51.094;13.714;2024-01-07T03:28:11;18.73;;;8.32;;
75655;SDS011;64252;51.094;13.714;2024-01-07T03:30:37;18.85;;;8.18;;
75655;SDS011;64252;51.094;13.714;2024-01-07T03:33:03;18.38;;;8.30;;
75655;SDS011;64252;51.094;13.714;2024-01-07T03:35:28;17.63;;;6.57;;
75655;SDS011;64252;51.094;13.714;2024-01-07T03:37:54;18.92;;;7.50;;
75655;SDS011;64252;51.094;13.714;2024-01-07T03:40:20;16.05;;;7.70;;
75655;SDS011;64252;51.094;13.714;2024-01-07T03:42:46;19.15;;;6.88;;
75655;SDS011;64252;51.094;13.714;2024-01-07T03:45:11;20.52;;;8.32;;
75655;SDS011;64252;51.094;13.714;2024-01-07T03:47:37;17.00;;;7.72;;
75655;SDS011;64252;51.094;13.714;2024-01-07T03:50:03;19.25;;;7.38;;
75655;SDS011;64252;51.094;13.714;2024-01-07T03:52:28;17.17;;;7.70;;
75655;SDS011;64252;51.094;13.714;2024-01-07T03:54:55;17.50;;;7.55;;
75655;SDS011;64252;51.094;13.714;2024-01-07T03:57:20;19.83;;;7.85;;
75655;SDS011;64252;51.094;13.714;2024-01-07T03:59:46;15.65;;;8.73;;
75655;SDS011;64252;51.094;13.714;2024-01-07T04:02:12;17.15;;;8.30;;
75655;SDS011;64252;51.094;13.714;2024-01-07T04:04:41;20.02;;;8.05;;
75655;SDS011;64252;51.094;13.714;2024-01-07T04:07:07;19.00;;;7.55;;
75655;SDS011;64252;51.094;13.714;2024-01-07T04:09:33;16.52;;;6.05;;
75655;SDS011;64252;51.094;13.714;2024-01-07T04:11:59;19.02;;;7.60;;
75655;SDS011;64252;51.094;13.714;2024-01-07T04:14:24;20.52;;;7.28;;
75655;SDS011;64252;51.094;13.714;2024-01-07T04:16:52;17.58;;;7.75;;
75655;SDS011;64252;51.094;13.714;2024-01-07T04:19:18;15.52;;;7.05;;
75655;SDS011;64252;51.094;13.714;2024-01-07T04:21:46;14.65;;;6.57;;
75655;SDS011;64252;51.094;13.714;2024-01-07T04:24:12;20.40;;;7.90;;
75655;SDS011;64252;51.094;13.714;2024-01-07T04:26:38;15.43;;;7.25;;
75655;SDS011;64252;51.094;13.714;2024-01-07T04:29:04;15.77;;;7.53;;
75655;SDS011;64252;51.094;13.714;2024-01-07T04:31:30;19.63;;;8.30;;
75655;SDS011;64252;51.094;13.714;2024-01-07T04:33:56;16.95;;;6.93;;
75655;SDS011;64252;51.094;13.714;2024-01-07T04:36:22;16.33;;;7.47;;
75655;SDS011;64252;51.094;13.714;2024-01-07T04:38:48;14.85;;;7.28;;
75655;SDS011;64252;51.094;13.714;2024-01-07T04:41:13;18.02;;;6.75;;
75655;SDS011;64252;51.094;13.714;2024-01-07T04:43:39;16.23;;;6.72;;
75655;SDS011;64252;51.094;13.714;2024-01-07T04:46:05;15.20;;;7.30;;
75655;SDS011;64252;51.094;13.714;2024-01-07T04:48:31;16.27;;;6.32;;
75655;SDS011;64252;51.094;13.714;2024-01-07T04:50:57;16.23;;;7.10;;
75655;SDS011;64252;51.094;13.714;2024-01-07T04:53:22;15.32;;;6.55;;
75655;SDS011;64252;51.094;13.714;2024-01-07T04:55:49;15.85;;;6.63;;
75655;SDS011;64252;51.094;13.714;2024-01-07T04:58:15;15.45;;;6.63;;
75655;SDS011;64252;51.094;13.714;2024-01-07T05:00:41;14.48;;;6.43;;
75655;SDS011;64252;51.094;13.714;2024-01-07T05:03:06;14.05;;;6.38;;
75655;SDS011;64252;51.094;13.714;2024-01-07T05:05:32;12.77;;;5.55;;
75655;SDS011;64252;51.094;13.714;2024-01-07T05:07:58;13.90;;;6.65;;
75655;SDS011;64252;51.094;13.714;2024-01-07T05:10:25;11.40;;;5.65;;
75655;SDS011;64252;51.094;13.714;2024-01-07T05:12:51;14.13;;;5.95;;
75655;SDS011;64252;51.094;13.714;2024-01-07T05:15:17;15.88;;;6.32;;
75655;SDS011;64252;51.094;13.714;2024-01-07T05:17:43;12.55;;;5.88;;
75655;SDS011;64252;51.094;13.714;2024-01-07T05:20:09;13.38;;;6.50;;
75655;SDS011;64252;51.094;13.714;2024-01-07T05:22:35;13.27;;;6.35;;
75655;SDS011;64252;51.094;13.714;2024-01-07T05:25:01;11.93;;;6.10;;
75655;SDS011;64252;51.094;13.714;2024-01-07T05:27:26;10.75;;;5.45;;
75655;SDS011;64252;51.094;13.714;2024-01-07T05:29:52;16.02;;;6.00;;
75655;SDS011;64252;51.094;13.714;2024-01-07T05:32:20;13.88;;;5.38;;
75655;SDS011;64252;51.094;13.714;2024-01-07T05:34:46;14.07;;;5.97;;
75655;SDS011;64252;51.094;13.714;2024-01-07T05:37:11;11.35;;;5.38;;
75655;SDS011;64252;51.094;13.714;2024-01-07T05:39:37;10.98;;;5.28;;
75655;SDS011;64252;51.094;13.714;2024-01-07T05:42:03;12.63;;;5.25;;
75655;SDS011;64252;51.094;13.714;2024-01-07T05:44:28;13.48;;;5.85;;
75655;SDS011;64252;51.094;13.714;2024-01-07T05:46:54;11.02;;;4.75;;
75655;SDS011;64252;51.094;13.714;2024-01-07T05:49:20;11.90;;;5.10;;
75655;SDS011;64252;51.094;13.714;2024-01-07T05:51:45;12.55;;;4.72;;
75655;SDS011;64252;51.094;13.714;2024-01-07T05:54:11;12.15;;;5.28;;
75655;SDS011;64252;51.094;13.714;2024-01-07T05:56:39;12.35;;;5.95;;
75655;SDS011;64252;51.094;13.714;2024-01-07T05:59:06;9.82;;;4.82;;
75655;SDS011;64252;51.094;13.714;2024-01-07T06:01:32;10.93;;;4.15;;
75655;SDS011;64252;51.094;13.714;2024-01-07T06:03:58;14.48;;;6.43;;
75655;SDS011;64252;51.094;13.714;2024-01-07T06:06:24;9.07;;;4.40;;
75655;SDS011;64252;51.094;13.714;2024-01-07T06:08:50;14.45;;;5.03;;
75655;SDS011;64252;51.094;13.714;2024-01-07T06:11:16;10.55;;;4.38;;
75655;SDS011;64252;51.094;13.714;2024-01-07T06:13:45;10.52;;;4.75;;
75655;SDS011;64252;51.094;13.714;2024-01-07T06:16:11;12.20;;;4.15;;
75655;SDS011;64252;51.094;13.714;2024-01-07T06:18:37;9.02;;;4.32;;
75655;SDS011;64252;51.094;13.714;2024-01-07T06:21:02;11.20;;;4.40;;
75655;SDS011;64252;51.094;13.714;2024-01-07T06:23:28;12.48;;;5.45;;
75655;SDS011;64252;51.094;13.714;2024-01-07T06:25:54;10.25;;;4.15;;
75655;SDS011;64252;51.094;13.714;2024-01-07T06:28:20;9.02;;;4.05;;
75655;SDS011;64252;51.094;13.714;2024-01-07T06:30:48;14.00;;;5.53;;
75655;SDS011;64252;51.094;13.714;2024-01-07T06:33:14;9.40;;;4.13;;
75655;SDS011;64252;51.094;13.714;2024-01-07T06:35:40;9.93;;;4.50;;
75655;SDS011;64252;51.094;13.714;2024-01-07T06:38:06;10.30;;;3.78;;
75655;SDS011;64252;51.094;13.714;2024-01-07T06:40:31;11.05;;;3.97;;
75655;SDS011;64252;51.094;13.714;2024-01-07T06:43:00;11.18;;;3.70;;
75655;SDS011;64252;51.094;13.714;2024-01-07T06:45:25;9.75;;;3.42;;
75655;SDS011;64252;51.094;13.714;2024-01-07T06:47:51;13.50;;;3.97;;
75655;SDS011;64252;51.094;13.714;2024-01-07T06:50:18;8.10;;;3.40;;
75655;SDS011;64252;51.094;13.714;2024-01-07T06:52:45;9.18;;;4.07;;
75655;SDS011;64252;51.094;13.714;2024-01-07T06:55:11;9.52;;;3.30;;
75655;SDS011;64252;51.094;13.714;2024-01-07T06:57:37;9.45;;;3.88;;
75655;SDS011;64252;51.094;13.714;2024-01-07T07:00:03;6.75;;;2.88;;
75655;SDS011;64252;51.094;13.714;2024-01-07T07:02:32;6.82;;;2.63;;
75655;SDS011;64252;51.094;13.714;2024-01-07T07:04:57;8.32;;;3.17;;
75655;SDS011;64252;51.094;13.714;2024-01-07T07:07:23;7.93;;;3.80;;
75655;SDS011;64252;51.094;13.714;2024-01-07T07:09:49;7.13;;;3.05;;
75655;SDS011;64252;51.094;13.714;2024-01-07T07:12:15;9.40;;;3.97;;
75655;SDS011;64252;51.094;13.714;2024-01-07T07:14:41;8.88;;;3.63;;
75655;SDS011;64252;51.094;13.714;2024-01-07T07:17:06;8.02;;;3.30;;
75655;SDS011;64252;51.094;13.714;2024-01-07T07:19:33;7.47;;;3.58;;
75655;SDS011;64252;51.094;13.714;2024-01-07T07:21:58;8.55;;;3.92;;
75655;SDS011;64252;51.094;13.714;2024-01-07T07:24:24;7.25;;;2.88;;
75655;SDS011;64252;51.094;13.714;2024-01-07T07:26:49;7.30;;;3.75;;
75655;SDS011;64252;51.094;13.714;2024-01-07T07:29:15;7.95;;;3.25;;
75655;SDS011;64252;51.094;13.714;2024-01-07T07:31:41;8.82;;;3.20;;
75655;SDS011;64252;51.094;13.714;2024-01-07T07:34:08;7.47;;;3.05;;
75655;SDS011;64252;51.094;13.714;2024-01-07T07:36:38;9.07;;;3.30;;
75655;SDS011;64252;51.094;13.714;2024-01-07T07:39:08;6.30;;;2.85;;
75655;SDS011;64252;51.094;13.714;2024-01-07T07:41:34;6.97;;;3.30;;
75655;SDS011;64252;51.094;13.714;2024-01-07T07:44:00;7.88;;;3.05;;
75655;SDS011;64252;51.094;13.714;2024-01-07T07:46:25;11.05;;;4.07;;
75655;SDS011;64252;51.094;13.714;2024-01-07T07:48:51;7.72;;;3.67;;
75655;SDS011;64252;51.094;13.714;2024-01-07T07:51:17;6.85;;;2.90;;
75655;SDS011;64252;51.094;13.714;2024-01-07T07:53:43;5.82;;;2.65;;
75655;SDS011;64252;51.094;13.714;2024-01-07T07:56:09;6.57;;;2.65;;
75655;SDS011;64252;51.094;13.714;2024-01-07T07:58:37;8.27;;;3.30;;
75655;SDS011;64252;51.094;13.714;2024-01-07T08:01:04;8.18;;;3.00;;
75655;SDS011;64252;51.094;13.714;2024-01-07T08:03:30;6.07;;;2.58;;
75655;SDS011;64252;51.094;13.714;2024-01-07T08:05:57;7.75;;;2.80;;
75655;SDS011;64252;51.094;13.714;2024-01-07T08:08:22;7.18;;;2.70;;
75655;SDS011;64252;51.094;13.714;2024-01-07T08:10:48;7.88;;;2.58;;
75655;SDS011;64252;51.094;13.714;2024-01-07T08:13:13;5.57;;;2.10;;
75655;SDS011;64252;51.094;13.714;2024-01-07T08:15:39;5.40;;;2.60;;
75655;SDS011;64252;51.094;13.714;2024-01-07T08:18:05;6.28;;;2.58;;
75655;SDS011;64252;51.094;13.714;2024-01-07T08:20:31;10.82;;;4.15;;
75655;SDS011;64252;51.094;13.714;2024-01-07T08:22:56;5.30;;;2.30;;
75655;SDS011;64252;51.094;13.714;2024-01-07T08:25:22;4.30;;;2.00;;
75655;SDS011;64252;51.094;13.714;2024-01-07T08:27:48;5.22;;;2.20;;
75655;SDS011;64252;51.094;13.714;2024-01-07T08:30:16;6.65;;;1.95;;
75655;SDS011;64252;51.094;13.714;2024-01-07T08:32:41;5.25;;;2.20;;
75655;SDS011;64252;51.094;13.714;2024-01-07T08:35:07;8.60;;;2.72;;
75655;SDS011;64252;51.094;13.714;2024-01-07T08:37:34;8.50;;;2.90;;
75655;SDS011;64252;51.094;13.714;2024-01-07T08:40:00;8.05;;;2.80;;
75655;SDS011;64252;51.094;13.714;2024-01-07T08:42:26;6.88;;;2.90;;
75655;SDS011;64252;51.094;13.714;2024-01-07T08:44:52;7.85;;;2.35;;
75655;SDS011;64252;51.094;13.714;2024-01-07T08:47:18;5.85;;;2.38;;
75655;SDS011;64252;51.094;13.714;2024-01-07T08:49:43;6.63;;;2.10;;
75655;SDS011;64252;51.094;13.714;2024-01-07T08:52:09;5.68;;;2.20;;
75655;SDS011;64252;51.094;13.714;2024-01-07T08:54:35;7.63;;;2.50;;
75655;SDS011;64252;51.094;13.714;2024-01-07T08:57:01;5.35;;;2.20;;
75655;SDS011;64252;51.094;13.714;2024-01-07T08:59:26;4.78;;;2.33;;
75655;SDS011;64252;51.094;13.714;2024-01-07T09:01:52;4.40;;;1.90;;
75655;SDS011;64252;51.094;13.714;2024-01-07T09:04:18;3.95;;;1.90;;
75655;SDS011;64252;51.094;13.714;2024-01-07T09:06:44;9.07;;;3.20;;
75655;SDS011;64252;51.094;13.714;2024-01-07T09:09:10;6.50;;;2.55;;
75655;SDS011;64252;51.094;13.714;2024-01-07T09:11:38;4.97;;;1.77;;
75655;SDS011;64252;51.094;13.714;2024-01-07T09:14:04;4.88;;;1.83;;
75655;SDS011;64252;51.094;13.714;2024-01-07T09:16:29;6.53;;;2.38;;
75655;SDS011;64252;51.094;13.714;2024-01-07T09:18:55;6.30;;;2.33;;
75655;SDS011;64252;51.094;13.714;2024-01-07T09:21:21;4.53;;;2.13;;
75655;SDS011;64252;51.094;13.714;2024-01-07T09:23:48;5.93;;;2.22;;
75655;SDS011;64252;51.094;13.714;2024-01-07T09:26:14;7.10;;;1.92;;
75655;SDS011;64252;51.094;13.714;2024-01-07T09:28:39;9.02;;;3.63;;
75655;SDS011;64252;51.094;13.714;2024-01-07T09:31:05;4.70;;;2.10;;
75655;SDS011;64252;51.094;13.714;2024-01-07T09:33:31;6.50;;;2.40;;
75655;SDS011;64252;51.094;13.714;2024-01-07T09:35:57;7.65;;;2.10;;
75655;SDS011;64252;51.094;13.714;2024-01-07T09:38:23;4.93;;;1.77;;
75655;SDS011;64252;51.094;13.714;2024-01-07T09:40:50;6.15;;;2.17;;
75655;SDS011;64252;51.094;13.714;2024-01-07T09:43:16;4.97;;;2.25;;
75655;SDS011;64252;51.094;13.714;2024-01-07T09:45:43;5.38;;;2.05;;
75655;SDS011;64252;51.094;13.714;2024-01-07T09:48:12;3.75;;;1.83;;
75655;SDS011;64252;51.094;13.714;2024-01-07T09:50:38;4.50;;;1.85;;
75655;SDS011;64252;51.094;13.714;2024-01-07T09:53:03;5.53;;;2.13;;
75655;SDS011;64252;51.094;13.714;2024-01-07T09:55:35;5.10;;;2.40;;
75655;SDS011;64252;51.094;13.714;2024-01-07T09:58:05;6.93;;;2.03;;
75655;SDS011;64252;51.094;13.714;2024-01-07T10:00:31;5.47;;;2.20;;
75655;SDS011;64252;51.094;13.714;2024-01-07T10:02:58;9.43;;;3.45;;
75655;SDS011;64252;51.094;13.714;2024-01-07T10:05:24;6.15;;;2.58;;
75655;SDS011;64252;51.094;13.714;2024-01-07T10:07:50;6.68;;;2.30;;
75655;SDS011;64252;51.094;13.714;2024-01-07T10:10:19;6.50;;;2.38;;
75655;SDS011;64252;51.094;13.714;2024-01-07T10:12:45;5.15;;;2.00;;
75655;SDS011;64252;51.094;13.714;2024-01-07T10:15:12;8.27;;;2.22;;
75655;SDS011;64252;51.094;13.714;2024-01-07T10:17:44;4.38;;;1.90;;
75655;SDS011;64252;51.094;13.714;2024-01-07T10:20:10;4.88;;;2.25;;
75655;SDS011;64252;51.094;13.714;2024-01-07T10:22:37;4.80;;;1.75;;
75655;SDS011;64252;51.094;13.714;2024-01-07T10:25:05;4.10;;;1.55;;
75655;SDS011;64252;51.094;13.714;2024-01-07T10:27:35;4.88;;;2.13;;
75655;SDS011;64252;51.094;13.714;2024-01-07T10:30:01;6.70;;;2.20;;
75655;SDS011;64252;51.094;13.714;2024-01-07T10:32:28;5.40;;;2.33;;
75655;SDS011;64252;51.094;13.714;2024-01-07T10:35:02;10.02;;;2.10;;
75655;SDS011;64252;51.094;13.714;2024-01-07T10:37:30;5.70;;;2.05;;
75655;SDS011;64252;51.094;13.714;2024-01-07T10:39:59;5.88;;;2.05;;
75655;SDS011;64252;51.094;13.714;2024-01-07T10:42:32;4.30;;;1.75;;
75655;SDS011;64252;51.094;13.714;2024-01-07T10:45:01;3.88;;;1.75;;
75655;SDS011;64252;51.094;13.714;2024-01-07T10:47:31;4.28;;;1.83;;
75655;SDS011;64252;51.094;13.714;2024-01-07T10:49:57;5.43;;;2.20;;
75655;SDS011;64252;51.094;13.714;2024-01-07T10:52:25;4.53;;;1.95;;
75655;SDS011;64252;51.094;13.714;2024-01-07T10:54:52;5.63;;;2.17;;
75655;SDS011;64252;51.094;13.714;2024-01-07T10:57:24;3.85;;;1.80;;
75655;SDS011;64252;51.094;13.714;2024-01-07T10:59:55;6.25;;;2.13;;
75655;SDS011;64252;51.094;13.714;2024-01-07T11:02:22;3.35;;;1.73;;
75655;SDS011;64252;51.094;13.714;2024-01-07T11:07:35;4.65;;;1.70;;
75655;SDS011;64252;51.094;13.714;2024-01-07T11:12:54;5.47;;;1.92;;
75655;SDS011;64252;51.094;13.714;2024-01-07T11:15:53;3.92;;;1.52;;
75655;SDS011;64252;51.094;13.714;2024-01-07T11:18:22;5.35;;;1.77;;
75655;SDS011;64252;51.094;13.714;2024-01-07T11:20:48;6.75;;;1.75;;
75655;SDS011;64252;51.094;13.714;2024-01-07T11:23:33;6.40;;;2.75;;
75655;SDS011;64252;51.094;13.714;2024-01-07T11:26:03;3.45;;;1.60;;
75655;SDS011;64252;51.094;13.714;2024-01-07T11:28:45;5.32;;;1.48;;
75655;SDS011;64252;51.094;13.714;2024-01-07T11:31:44;4.20;;;1.65;;
75655;SDS011;64252;51.094;13.714;2024-01-07T11:34:38;3.97;;;1.40;;
75655;SDS011;64252;51.094;13.714;2024-01-07T11:37:17;4.00;;;1.80;;
75655;SDS011;64252;51.094;13.714;2024-01-07T11:39:43;4.35;;;1.60;;
75655;SDS011;64252;51.094;13.714;2024-01-07T11:42:12;5.72;;;1.58;;
75655;SDS011;64252;51.094;13.714;2024-01-07T11:44:44;5.28;;;1.90;;
75655;SDS011;64252;51.094;13.714;2024-01-07T11:47:15;4.22;;;1.70;;
75655;SDS011;64252;51.094;13.714;2024-01-07T11:49:44;5.70;;;1.95;;
75655;SDS011;64252;51.094;13.714;2024-01-07T11:52:10;6.35;;;2.20;;
75655;SDS011;64252;51.094;13.714;2024-01-07T11:54:37;4.68;;;1.95;;
75655;SDS011;64252;51.094;13.714;2024-01-07T11:57:03;6.25;;;2.10;;
75655;SDS011;64252;51.094;13.714;2024-01-07T11:59:30;4.25;;;2.08;;
75655;SDS011;64252;51.094;13.714;2024-01-07T12:01:55;4.90;;;2.08;;
75655;SDS011;64252;51.094;13.714;2024-01-07T12:04:21;4.00;;;1.73;;
75655;SDS011;64252;51.094;13.714;2024-01-07T12:06:47;5.20;;;1.30;;
75655;SDS011;64252;51.094;13.714;2024-01-07T12:09:14;5.18;;;1.88;;
75655;SDS011;64252;51.094;13.714;2024-01-07T12:11:40;3.75;;;1.80;;
75655;SDS011;64252;51.094;13.714;2024-01-07T12:14:09;5.10;;;1.90;;
75655;SDS011;64252;51.094;13.714;2024-01-07T12:16:36;2.47;;;0.90;;
75655;SDS011;64252;51.094;13.714;2024-01-07T12:19:02;4.43;;;1.63;;
75655;SDS011;64252;51.094;13.714;2024-01-07T12:21:28;3.72;;;1.80;;
75655;SDS011;64252;51.094;13.714;2024-01-07T12:23:55;5.88;;;1.85;;
75655;SDS011;64252;51.094;13.714;2024-01-07T12:26:25;6.20;;;1.90;;
75655;SDS011;64252;51.094;13.714;2024-01-07T12:28:52;5.63;;;1.60;;
75655;SDS011;64252;51.094;13.714;2024-01-07T12:31:20;6.15;;;2.13;;
75655;SDS011;64252;51.094;13.714;2024-01-07T12:33:47;4.00;;;1.70;;
75655;SDS011;64252;51.094;13.714;2024-01-07T12:36:19;3.33;;;1.38;;
75655;SDS011;64252;51.094;13.714;2024-01-07T12:38:45;4.45;;;1.73;;
75655;SDS011;64252;51.094;13.714;2024-01-07T12:41:11;3.70;;;1.60;;
75655;SDS011;64252;51.094;13.714;2024-01-07T12:43:37;4.95;;;1.77;;
75655;SDS011;64252;51.094;13.714;2024-01-07T12:46:02;4.05;;;1.75;;
75655;SDS011;64252;51.094;13.714;2024-01-07T12:48:31;5.93;;;1.90;;
75655;SDS011;64252;51.094;13.714;2024-01-07T12:50:57;4.30;;;1.42;;
75655;SDS011;64252;51.094;13.714;2024-01-07T12:53:23;6.00;;;2.17;;
75655;SDS011;64252;51.094;13.714;2024-01-07T12:55:49;4.60;;;1.60;;
75655;SDS011;64252;51.094;13.714;2024-01-07T12:58:16;3.78;;;1.38;;
75655;SDS011;64252;51.094;13.714;2024-01-07T13:00:42;2.88;;;1.23;;
75655;SDS011;64252;51.094;13.714;2024-01-07T13:03:09;4.72;;;1.73;;
75655;SDS011;64252;51.094;13.714;2024-01-07T13:05:43;5.00;;;1.60;;
75655;SDS011;64252;51.094;13.714;2024-01-07T13:08:09;3.95;;;1.75;;
75655;SDS011;64252;51.094;13.714;2024-01-07T13:10:35;6.70;;;2.08;;
75655;SDS011;64252;51.094;13.714;2024-01-07T13:13:01;3.75;;;1.40;;
75655;SDS011;64252;51.094;13.714;2024-01-07T13:15:26;6.32;;;1.85;;
75655;SDS011;64252;51.094;13.714;2024-01-07T13:17:52;4.70;;;1.63;;
75655;SDS011;64252;51.094;13.714;2024-01-07T13:20:17;4.70;;;1.33;;
75655;SDS011;64252;51.094;13.714;2024-01-07T13:22:45;3.75;;;1.63;;
75655;SDS011;64252;51.094;13.714;2024-01-07T13:25:12;2.83;;;1.23;;
75655;SDS011;64252;51.094;13.714;2024-01-07T13:27:37;2.85;;;1.10;;
75655;SDS011;64252;51.094;13.714;2024-01-07T13:30:04;3.17;;;1.25;;
75655;SDS011;64252;51.094;13.714;2024-01-07T13:32:31;3.45;;;1.63;;
75655;SDS011;64252;51.094;13.714;2024-01-07T13:35:02;3.88;;;1.50;;
75655;SDS011;64252;51.094;13.714;2024-01-07T13:37:28;3.28;;;1.30;;
75655;SDS011;64252;51.094;13.714;2024-01-07T13:39:54;5.05;;;2.28;;
75655;SDS011;64252;51.094;13.714;2024-01-07T13:42:19;4.97;;;1.98;;
75655;SDS011;64252;51.094;13.714;2024-01-07T13:44:45;3.10;;;1.40;;
75655;SDS011;64252;51.094;13.714;2024-01-07T13:47:13;3.33;;;1.42;;
75655;SDS011;64252;51.094;13.714;2024-01-07T13:49:40;4.60;;;1.50;;
75655;SDS011;64252;51.094;13.714;2024-01-07T13:52:06;3.53;;;1.50;;
75655;SDS011;64252;51.094;13.714;2024-01-07T13:54:31;5.10;;;1.60;;
75655;SDS011;64252;51.094;13.714;2024-01-07T13:56:57;3.33;;;1.50;;
75655;SDS011;64252;51.094;13.714;2024-01-07T13:59:23;4.03;;;1.70;;
75655;SDS011;64252;51.094;13.714;2024-01-07T14:01:49;3.58;;;1.38;;
75655;SDS011;64252;51.094;13.714;2024-01-07T14:04:14;3.58;;;1.45;;
75655;SDS011;64252;51.094;13.714;2024-01-07T14:06:40;4.00;;;1.50;;
75655;SDS011;64252;51.094;13.714;2024-01-07T14:09:09;4.32;;;1.50;;
75655;SDS011;64252;51.094;13.714;2024-01-07T14:11:35;4.40;;;1.65;;
75655;SDS011;64252;51.094;13.714;2024-01-07T14:14:00;4.03;;;1.60;;
75655;SDS011;64252;51.094;13.714;2024-01-07T14:16:26;3.03;;;1.30;;
75655;SDS011;64252;51.094;13.714;2024-01-07T14:18:54;5.05;;;1.70;;
75655;SDS011;64252;51.094;13.714;2024-01-07T14:21:19;5.82;;;1.60;;
75655;SDS011;64252;51.094;13.714;2024-01-07T14:23:46;5.57;;;1.85;;
75655;SDS011;64252;51.094;13.714;2024-01-07T14:26:12;4.97;;;1.90;;
75655;SDS011;64252;51.094;13.714;2024-01-07T14:28:38;2.90;;;1.33;;